createdAt,value
2022-12-18T00:04:38.089Z,-1.77
2022-12-18T00:09:40.641Z,-1.81
2022-12-18T00:14:43.207Z,-1.96
2022-12-18T00:19:44.774Z,-1.97
2022-12-18T00:24:46.483Z,-1.98
2022-12-18T00:29:49.322Z,-2.04
2022-12-18T00:34:51.016Z,-2.11
2022-12-18T00:39:52.710Z,-2.15
2022-12-18T00:44:55.193Z,-2.13
2022-12-18T00:49:56.770Z,-2.15
2022-12-18T00:55:03.059Z,-2.38
2022-12-18T01:00:10.204Z,-2.55
2022-12-18T01:05:16.514Z,-2.56
2022-12-18T01:10:18.640Z,-2.66
2022-12-18T01:15:21.408Z,-2.69
2022-12-18T01:20:23.341Z,-2.71
2022-12-18T01:25:24.998Z,-2.90
2022-12-18T01:30:26.565Z,-2.81
2022-12-18T01:35:28.312Z,-2.82
2022-12-18T01:40:30.429Z,-2.78
2022-12-18T01:45:32.941Z,-2.87
2022-12-18T01:50:40.862Z,-2.84
2022-12-18T01:55:52.931Z,-2.98
2022-12-18T02:00:56.732Z,-3.07
2022-12-18T02:06:05.912Z,-3.08
2022-12-18T02:11:35.892Z,-3.10
2022-12-18T02:17:02.053Z,-3.11
2022-12-18T02:22:25.475Z,-3.31
2022-12-18T02:27:28.977Z,-3.27
2022-12-18T02:32:38.577Z,-3.24
2022-12-18T02:37:42.917Z,-3.29
2022-12-18T02:42:45.348Z,-3.34
2022-12-18T02:47:51.413Z,-3.38
2022-12-18T02:53:18.014Z,-3.39
2022-12-18T02:58:26.023Z,-3.45
2022-12-18T03:03:39.888Z,-3.55
2022-12-18T03:08:50.585Z,-3.58
2022-12-18T03:13:59.247Z,-3.51
2022-12-18T03:19:13.576Z,-3.66
2022-12-18T03:24:20.154Z,-3.57
2022-12-18T03:29:28.152Z,-3.58
2022-12-18T03:34:33.563Z,-3.65
2022-12-18T03:39:38.555Z,-3.81
2022-12-18T03:45:02.953Z,-3.77
2022-12-18T03:50:12.810Z,-3.69
2022-12-18T03:55:18.652Z,-3.83
2022-12-18T04:00:23.053Z,-3.96
2022-12-18T04:05:39.860Z,-3.92
2022-12-18T04:10:42.821Z,-4.03
2022-12-18T04:15:44.753Z,-4.05
2022-12-18T04:20:50.135Z,-4.08
2022-12-18T04:25:53.279Z,-4.01
2022-12-18T04:31:10.857Z,-4.13
2022-12-18T04:36:13.439Z,-4.16
2022-12-18T04:41:16.042Z,-4.22
2022-12-18T04:46:20.553Z,-4.25
2022-12-18T04:51:26.344Z,-4.23
2022-12-18T04:56:28.499Z,-4.32
2022-12-18T05:01:34.596Z,-4.42
2022-12-18T05:06:36.756Z,-4.40
2022-12-18T05:11:38.521Z,-4.31
2022-12-18T05:16:40.198Z,-4.33
2022-12-18T05:21:42.171Z,-4.33
2022-12-18T05:26:44.402Z,-4.38
2022-12-18T05:31:46.112Z,-4.50
2022-12-18T05:36:47.798Z,-4.58
2022-12-18T05:41:49.456Z,-4.55
2022-12-18T05:46:51.127Z,-4.64
2022-12-18T05:51:52.976Z,-4.62
2022-12-18T05:56:54.913Z,-4.64
2022-12-18T06:01:56.577Z,-4.66
2022-12-18T06:06:58.624Z,-4.78
2022-12-18T06:12:00.252Z,-4.79
2022-12-18T06:17:02.303Z,-4.89
2022-12-18T06:22:03.921Z,-4.90
2022-12-18T06:27:05.508Z,-4.90
2022-12-18T06:32:07.185Z,-5.09
2022-12-18T06:37:09.043Z,-5.02
2022-12-18T06:42:10.810Z,-5.05
2022-12-18T06:47:12.422Z,-4.97
2022-12-18T06:52:14.198Z,-4.97
2022-12-18T06:57:16.129Z,-4.98
2022-12-18T07:02:18.612Z,-4.99
2022-12-18T07:07:20.531Z,-4.91
2022-12-18T07:12:22.130Z,-4.96
2022-12-18T07:17:23.818Z,-4.82
2022-12-18T07:22:27.104Z,-4.82
2022-12-18T07:27:28.697Z,-4.76
2022-12-18T07:32:31.526Z,-4.64
2022-12-18T07:37:33.259Z,-4.67
2022-12-18T07:42:35.796Z,-4.61
2022-12-18T07:47:37.654Z,-4.48
2022-12-18T07:52:39.310Z,-4.37
2022-12-18T07:57:50.701Z,-4.25
2022-12-18T08:02:54.334Z,-4.21
2022-12-18T08:07:56.992Z,-4.15
2022-12-18T08:13:04.463Z,-4.02
2022-12-18T08:18:10.102Z,-3.86
2022-12-18T08:23:14.319Z,-3.75
2022-12-18T08:28:15.911Z,-3.62
2022-12-18T08:33:17.580Z,-3.58
2022-12-18T08:38:19.267Z,-3.48
2022-12-18T08:43:40.645Z,-3.39
2022-12-18T08:48:42.673Z,-3.54
2022-12-18T08:53:45.481Z,-3.30
2022-12-18T08:58:47.615Z,-3.20
2022-12-18T09:03:50.728Z,-3.14
2022-12-18T09:08:52.380Z,-3.08
2022-12-18T09:13:55.121Z,-2.94
2022-12-18T09:19:00.529Z,-2.99
2022-12-18T09:24:02.240Z,-2.73
2022-12-18T09:29:04.916Z,-2.74
2022-12-18T09:34:06.993Z,-2.70
2022-12-18T09:39:09.132Z,-2.68
2022-12-18T09:44:13.746Z,-2.48
2022-12-18T09:49:19.173Z,-2.41
2022-12-18T09:54:32.279Z,-2.68
2022-12-18T09:59:40.691Z,-2.58
2022-12-18T10:04:43.068Z,-2.36
2022-12-18T10:10:02.067Z,-2.29
2022-12-18T10:15:15.900Z,-2.18
2022-12-18T10:20:30.911Z,-2.23
2022-12-18T10:25:42.607Z,-1.74
2022-12-18T10:30:45.005Z,-1.72
2022-12-18T10:35:49.010Z,-1.52
2022-12-18T10:41:03.891Z,-1.51
2022-12-18T10:46:08.693Z,-1.47
2022-12-18T10:51:13.127Z,-1.55
2022-12-18T10:56:21.675Z,-1.71
2022-12-18T11:01:23.650Z,-1.27
2022-12-18T11:06:26.646Z,-0.96
2022-12-18T11:11:29.372Z,-0.73
2022-12-18T11:16:36.078Z,-0.60
2022-12-18T11:21:42.644Z,-0.58
2022-12-18T11:26:44.398Z,-0.52
2022-12-18T11:31:46.448Z,-0.47
2022-12-18T11:36:49.525Z,-0.59
2022-12-18T11:42:12.403Z,-0.57
2022-12-18T11:47:29.352Z,-0.71
2022-12-18T11:52:40.043Z,-0.50
2022-12-18T11:58:39.219Z,-0.61
2022-12-18T12:03:50.896Z,-0.44
2022-12-18T12:09:11.787Z,-0.53
2022-12-18T12:14:31.124Z,-0.28
2022-12-18T12:19:54.934Z,-0.54
2022-12-18T12:25:21.224Z,-0.34
2022-12-18T12:30:40.436Z,-0.38
2022-12-18T12:35:47.924Z,-0.29
2022-12-18T12:41:04.021Z,-0.87
2022-12-18T12:46:08.350Z,-1.03
2022-12-18T12:51:38.083Z,-0.96
2022-12-18T12:57:04.351Z,-0.89
2022-12-18T13:02:24.121Z,-1.34
2022-12-18T13:07:33.555Z,-1.46
2022-12-18T13:12:53.417Z,-1.46
2022-12-18T13:18:10.264Z,-1.32
2022-12-18T13:23:28.699Z,-1.36
2022-12-18T13:28:34.174Z,-1.48
2022-12-18T13:33:35.920Z,-1.44
2022-12-18T13:38:39.747Z,-1.60
2022-12-18T13:43:47.592Z,-1.82
2022-12-18T13:48:53.180Z,-1.56
2022-12-18T13:54:01.070Z,-1.64
2022-12-18T13:59:14.838Z,-1.78
2022-12-18T14:04:24.612Z,-1.72
2022-12-18T14:09:30.048Z,-1.56
2022-12-18T14:14:33.797Z,-1.52
2022-12-18T14:19:36.886Z,-1.64
2022-12-18T14:24:38.521Z,-1.61
2022-12-18T14:29:44.067Z,-1.66
2022-12-18T14:34:56.247Z,-1.75
2022-12-18T14:40:03.148Z,-1.66
2022-12-18T14:45:41.589Z,-1.65
2022-12-18T14:50:45.157Z,-1.44
2022-12-18T14:55:48.895Z,-1.35
2022-12-18T15:00:51.304Z,-1.36
2022-12-18T15:05:52.945Z,-1.29
2022-12-18T15:10:54.786Z,-1.38
2022-12-18T15:16:02.394Z,-1.55
2022-12-18T15:21:12.341Z,-1.60
2022-12-18T15:26:16.562Z,-1.61
2022-12-18T15:31:18.330Z,-1.55
2022-12-18T15:36:26.367Z,-1.43
2022-12-18T15:41:34.502Z,-1.35
2022-12-18T15:46:37.996Z,-1.27
2022-12-18T15:51:40.895Z,-1.21
2022-12-18T15:57:01.546Z,-1.19
2022-12-18T16:02:03.455Z,-1.15
2022-12-18T16:07:14.861Z,-1.13
2022-12-18T16:12:23.965Z,-1.15
2022-12-18T16:17:25.681Z,-1.15
2022-12-18T16:22:30.032Z,-1.12
2022-12-18T16:27:31.947Z,-1.10
2022-12-18T16:32:33.967Z,-1.10
2022-12-18T16:37:35.963Z,-1.07
2022-12-18T16:42:38.856Z,-1.02
2022-12-18T16:47:42.125Z,-1.02
2022-12-18T16:52:45.209Z,-1.03
2022-12-18T16:57:46.882Z,-1.00
2022-12-18T17:02:51.076Z,-1.05
2022-12-18T17:07:52.901Z,-1.14
2022-12-18T17:12:56.355Z,-1.13
2022-12-18T17:18:05.707Z,-1.19
2022-12-18T17:23:09.490Z,-1.21
2022-12-18T17:28:12.589Z,-1.23
2022-12-18T17:33:14.537Z,-1.23
2022-12-18T17:38:18.193Z,-1.16
2022-12-18T17:43:20.666Z,-1.17
2022-12-18T17:48:25.597Z,-1.15
2022-12-18T17:53:30.191Z,-1.09
2022-12-18T17:58:33.577Z,-1.04
2022-12-18T18:03:38.133Z,-1.02
2022-12-18T18:08:40.061Z,-0.98
2022-12-18T18:14:08.231Z,-0.93
2022-12-18T18:19:16.712Z,-0.89
2022-12-18T18:24:20.847Z,-0.86
2022-12-18T18:29:26.970Z,-0.81
2022-12-18T18:34:32.504Z,-0.73
2022-12-18T18:39:34.807Z,-0.72
2022-12-18T18:44:36.797Z,-0.68
2022-12-18T18:49:38.719Z,-0.67
2022-12-18T18:54:57.107Z,-0.59
2022-12-18T19:00:04.172Z,-0.56
2022-12-18T19:05:05.990Z,-0.59
2022-12-18T19:10:08.581Z,-0.53
2022-12-18T19:15:10.336Z,-0.53
2022-12-18T19:20:12.073Z,-0.53
2022-12-18T19:25:15.086Z,-0.53
2022-12-18T19:30:17.006Z,-0.54
2022-12-18T19:35:18.636Z,-0.52
2022-12-18T19:40:20.390Z,-0.48
2022-12-18T19:45:22.048Z,-0.47
2022-12-18T19:50:25.530Z,-0.42
2022-12-18T19:55:27.565Z,-0.42
2022-12-18T20:00:29.180Z,-0.43
2022-12-18T20:05:31.137Z,-0.46
2022-12-18T20:10:33.082Z,-0.43
2022-12-18T20:15:34.679Z,-0.43
2022-12-18T20:20:38.922Z,-0.46
2022-12-18T20:25:41.930Z,-0.52
2022-12-18T20:30:43.656Z,-0.55
2022-12-18T20:35:45.362Z,-0.59
2022-12-18T20:40:47.861Z,-0.70
2022-12-18T20:45:49.521Z,-0.73
2022-12-18T20:51:03.802Z,-0.83
2022-12-18T20:56:13.763Z,-0.82
2022-12-18T21:01:21.149Z,-0.92
2022-12-18T21:06:24.484Z,-0.98
2022-12-18T21:11:47.389Z,-1.05
2022-12-18T21:16:50.014Z,-1.12
2022-12-18T21:21:52.782Z,-1.21
2022-12-18T21:26:54.641Z,-1.24
2022-12-18T21:31:56.929Z,-1.31
2022-12-18T21:37:00.363Z,-1.35
2022-12-18T21:42:20.505Z,-1.38
2022-12-18T21:47:23.481Z,-1.48
2022-12-18T21:52:32.372Z,-1.47
2022-12-18T21:57:34.357Z,-1.54
2022-12-18T22:02:36.135Z,-1.56
2022-12-18T22:07:38.329Z,-1.55
2022-12-18T22:12:43.719Z,-1.60
2022-12-18T22:17:46.921Z,-1.54
2022-12-18T22:22:50.396Z,-1.51
2022-12-18T22:28:10.917Z,-1.52
2022-12-18T22:33:12.888Z,-1.53
2022-12-18T22:38:14.530Z,-1.52
2022-12-18T22:43:16.336Z,-1.52
2022-12-18T22:48:18.164Z,-1.45
2022-12-18T22:53:20.920Z,-1.33
2022-12-18T22:58:22.564Z,-1.23
2022-12-18T23:03:24.177Z,-1.14
2022-12-18T23:08:25.873Z,-1.12
2022-12-18T23:13:30.154Z,-1.05
2022-12-18T23:18:31.895Z,-1.15
2022-12-18T23:23:37.085Z,-1.16
2022-12-18T23:28:39.538Z,-1.12
2022-12-18T23:33:41.568Z,-1.12
2022-12-18T23:38:47.719Z,-1.06
2022-12-18T23:43:49.862Z,-1.12
2022-12-18T23:48:51.965Z,-1.22
2022-12-18T23:53:56.363Z,-1.26
2022-12-18T23:58:58.069Z,-1.33
